createdAt,value
2023-02-02T00:42:41.021Z,2.00
2023-02-02T00:58:46.321Z,2.00
2023-02-02T01:09:14.129Z,1.80
2023-02-02T01:14:40.409Z,1.90
2023-02-02T01:19:35.942Z,1.80
2023-02-02T01:30:17.554Z,1.90
2023-02-02T01:42:57.402Z,2.20
2023-02-02T01:49:07.914Z,2.30
2023-02-02T01:54:49.887Z,2.40
2023-02-02T02:11:02.740Z,2.30
2023-02-02T02:16:20.824Z,2.20
2023-02-02T02:32:50.171Z,2.10
2023-02-02T02:38:27.343Z,2.20
2023-02-02T02:44:05.457Z,2.20
2023-02-02T02:49:22.394Z,2.40
2023-02-02T02:54:33.739Z,2.50
2023-02-02T03:00:25.251Z,2.50
2023-02-02T03:06:12.351Z,2.70
2023-02-02T03:11:33.305Z,2.70
2023-02-02T03:16:22.964Z,2.70
2023-02-02T03:21:26.807Z,2.80
2023-02-02T03:32:08.119Z,2.80
2023-02-02T03:37:12.508Z,2.90
2023-02-02T03:42:13.563Z,2.90
2023-02-02T03:47:33.738Z,2.80
2023-02-02T03:52:56.264Z,2.80
2023-02-02T03:57:42.856Z,2.90
2023-02-02T04:02:33.817Z,2.90
2023-02-02T04:07:34.903Z,3.00
2023-02-02T04:29:07.434Z,2.90
2023-02-02T04:45:24.642Z,2.90
2023-02-02T04:51:06.835Z,2.80
2023-02-02T04:56:19.265Z,2.80
2023-02-02T05:02:17.135Z,2.80
2023-02-02T05:07:03.260Z,2.70
2023-02-02T05:12:22.138Z,2.80
2023-02-02T05:17:46.086Z,2.90
2023-02-02T05:22:50.120Z,2.90
2023-02-02T05:28:26.344Z,2.90
2023-02-02T05:51:18.430Z,2.90
2023-02-02T06:03:01.109Z,2.90
2023-02-02T06:13:46.121Z,3.00
2023-02-02T06:32:03.268Z,2.90
2023-02-02T06:37:30.686Z,2.90
2023-02-02T06:48:34.537Z,2.90
2023-02-02T07:04:09.707Z,2.90
2023-02-02T07:15:18.040Z,3.00
2023-02-02T07:26:12.156Z,3.10
2023-02-02T07:31:21.911Z,3.10
2023-02-02T07:37:12.166Z,3.20
2023-02-02T07:42:02.420Z,3.10
2023-02-02T07:47:19.018Z,3.30
2023-02-02T08:05:58.249Z,3.30
2023-02-02T08:23:16.634Z,3.30
2023-02-02T08:56:09.762Z,3.40
2023-02-02T09:26:29.896Z,3.40
2023-02-02T09:50:18.335Z,3.50
2023-02-02T10:42:34.346Z,3.30
2023-02-02T10:48:00.802Z,3.30
2023-02-02T11:05:05.349Z,3.40
2023-02-02T11:16:43.072Z,3.50
2023-02-02T11:39:39.019Z,3.40
2023-02-02T11:45:26.289Z,3.50
2023-02-02T11:51:16.776Z,3.70
2023-02-02T12:03:17.610Z,4.00
2023-02-02T12:08:19.328Z,4.00
2023-02-02T12:13:46.494Z,3.70
2023-02-02T12:20:26.506Z,3.80
2023-02-02T12:25:57.939Z,3.90
2023-02-02T12:37:33.081Z,4.20
2023-02-02T12:49:39.327Z,4.30
2023-02-02T12:55:19.023Z,4.20
2023-02-02T14:00:21.205Z,3.60
2023-02-02T16:17:58.408Z,3.10
2023-02-02T16:51:49.901Z,3.00
2023-02-02T16:56:41.215Z,2.60
2023-02-02T17:01:46.049Z,2.30
2023-02-02T17:06:51.755Z,2.10
2023-02-02T17:12:33.104Z,2.00
2023-02-02T17:17:28.898Z,1.80
2023-02-02T17:22:15.897Z,2.00
2023-02-02T17:27:00.181Z,2.10
2023-02-02T17:32:09.256Z,2.20
2023-02-02T17:37:11.771Z,2.30
2023-02-02T17:42:29.728Z,2.40
2023-02-02T17:53:37.974Z,2.30
2023-02-02T17:58:42.501Z,2.40
2023-02-02T18:03:37.262Z,2.40
2023-02-02T18:08:21.175Z,2.40
2023-02-02T18:13:12.170Z,2.30
2023-02-02T18:18:00.702Z,2.40
2023-02-02T18:22:47.441Z,2.60
2023-02-02T18:27:32.292Z,2.60
2023-02-02T18:32:26.792Z,2.50
2023-02-02T18:43:17.936Z,2.20
2023-02-02T18:48:21.349Z,2.10
2023-02-02T19:04:06.569Z,1.80
2023-02-02T19:08:57.095Z,1.70
2023-02-02T19:13:41.857Z,1.70
2023-02-02T19:18:44.671Z,1.60
2023-02-02T19:23:45.256Z,1.60
2023-02-02T19:29:25.392Z,1.80
2023-02-02T19:34:15.740Z,1.60
2023-02-02T19:39:14.915Z,1.70
2023-02-02T19:44:21.177Z,1.50
2023-02-02T19:49:23.014Z,1.60
2023-02-02T19:54:30.837Z,1.70
2023-02-02T19:59:33.221Z,1.50
2023-02-02T20:04:23.848Z,1.70
2023-02-02T20:09:14.688Z,1.40
2023-02-02T20:14:11.376Z,1.40
2023-02-02T20:19:04.545Z,1.40
2023-02-02T20:23:49.039Z,1.40
2023-02-02T20:29:30.203Z,1.50
2023-02-02T20:34:43.077Z,1.40
2023-02-02T20:40:06.837Z,1.40
2023-02-02T20:44:52.598Z,1.50
2023-02-02T20:49:43.633Z,1.50
2023-02-02T20:54:34.874Z,1.60
2023-02-02T20:59:35.533Z,1.60
2023-02-02T21:04:24.907Z,1.60
2023-02-02T21:09:22.737Z,1.60
2023-02-02T21:14:29.112Z,1.60
2023-02-02T21:25:42.239Z,1.60
2023-02-02T21:36:37.289Z,1.50
2023-02-02T21:47:44.625Z,1.50
2023-02-02T21:52:37.713Z,1.50
2023-02-02T21:57:54.005Z,1.50
2023-02-02T22:04:06.792Z,1.50
2023-02-02T22:09:24.192Z,1.50
2023-02-02T22:19:48.982Z,1.50
2023-02-02T22:24:38.872Z,1.50
2023-02-02T22:29:25.508Z,1.40
2023-02-02T22:34:28.915Z,1.40
2023-02-02T22:39:19.722Z,1.20
2023-02-02T22:44:20.037Z,1.20
2023-02-02T23:01:25.022Z,1.40
2023-02-02T23:06:12.490Z,1.40
2023-02-02T23:11:04.856Z,1.50
2023-02-02T23:15:48.317Z,1.50
2023-02-02T23:20:36.165Z,1.50
2023-02-02T23:25:29.164Z,1.60
2023-02-02T23:30:14.612Z,1.70
2023-02-02T23:35:00.002Z,1.60
2023-02-02T23:39:48.089Z,1.70
2023-02-02T23:44:37.447Z,1.70
2023-02-02T23:49:25.208Z,1.70
2023-02-02T23:54:12.362Z,1.70
2023-02-02T23:59:06.138Z,1.70
